sensor_id;sensor_type;location;lat;lon;timestamp;temperature;humidity
19206;DHT22;59358;52.134;5.596;2023-02-28T00:01:32;1.50;99.90
19206;DHT22;59358;52.134;5.596;2023-02-28T00:04:01;1.50;99.90
19206;DHT22;59358;52.134;5.596;2023-02-28T00:06:28;1.60;99.90
19206;DHT22;59358;52.134;5.596;2023-02-28T00:08:55;1.70;99.90
19206;DHT22;59358;52.134;5.596;2023-02-28T00:11:22;1.70;99.90
19206;DHT22;59358;52.134;5.596;2023-02-28T00:13:49;1.70;99.90
19206;DHT22;59358;52.134;5.596;2023-02-28T00:16:18;1.80;99.90
19206;DHT22;59358;52.134;5.596;2023-02-28T00:18:45;1.80;99.90
19206;DHT22;59358;52.134;5.596;2023-02-28T00:21:14;1.90;99.90
19206;DHT22;59358;52.134;5.596;2023-02-28T00:23:41;1.90;99.90
19206;DHT22;59358;52.134;5.596;2023-02-28T00:26:08;2.00;99.90
19206;DHT22;59358;52.134;5.596;2023-02-28T00:28:34;2.00;99.90
19206;DHT22;59358;52.134;5.596;2023-02-28T00:31:01;2.10;99.90
19206;DHT22;59358;52.134;5.596;2023-02-28T00:33:29;2.10;99.90
19206;DHT22;59358;52.134;5.596;2023-02-28T00:36:03;2.20;99.90
19206;DHT22;59358;52.134;5.596;2023-02-28T00:38:32;2.30;99.90
19206;DHT22;59358;52.134;5.596;2023-02-28T00:40:59;2.30;99.90
19206;DHT22;59358;52.134;5.596;2023-02-28T00:43:30;2.40;99.90
19206;DHT22;59358;52.134;5.596;2023-02-28T00:45:58;2.40;99.90
19206;DHT22;59358;52.134;5.596;2023-02-28T00:48:24;2.40;99.90
19206;DHT22;59358;52.134;5.596;2023-02-28T00:50:51;2.40;99.90
19206;DHT22;59358;52.134;5.596;2023-02-28T00:53:18;2.50;99.90
19206;DHT22;59358;52.134;5.596;2023-02-28T00:55:46;2.50;99.90
19206;DHT22;59358;52.134;5.596;2023-02-28T00:58:13;2.50;99.90
19206;DHT22;59358;52.134;5.596;2023-02-28T01:00:40;2.60;99.90
19206;DHT22;59358;52.134;5.596;2023-02-28T01:03:07;2.60;99.90
19206;DHT22;59358;52.134;5.596;2023-02-28T01:05:33;2.60;99.90
19206;DHT22;59358;52.134;5.596;2023-02-28T01:08:00;2.60;99.90
19206;DHT22;59358;52.134;5.596;2023-02-28T01:10:28;2.70;99.90
19206;DHT22;59358;52.134;5.596;2023-02-28T01:12:58;2.70;99.90
19206;DHT22;59358;52.134;5.596;2023-02-28T01:15:24;2.70;99.90
19206;DHT22;59358;52.134;5.596;2023-02-28T01:17:51;2.80;99.90
19206;DHT22;59358;52.134;5.596;2023-02-28T01:20:18;2.80;99.90
19206;DHT22;59358;52.134;5.596;2023-02-28T01:22:45;2.80;99.90
19206;DHT22;59358;52.134;5.596;2023-02-28T01:25:12;2.80;99.90
19206;DHT22;59358;52.134;5.596;2023-02-28T01:27:39;2.80;99.90
19206;DHT22;59358;52.134;5.596;2023-02-28T01:30:09;2.80;99.90
19206;DHT22;59358;52.134;5.596;2023-02-28T01:32:36;2.80;99.90
19206;DHT22;59358;52.134;5.596;2023-02-28T01:35:03;2.90;99.90
19206;DHT22;59358;52.134;5.596;2023-02-28T01:37:30;2.90;99.90
19206;DHT22;59358;52.134;5.596;2023-02-28T01:39:57;2.80;99.90
19206;DHT22;59358;52.134;5.596;2023-02-28T01:42:24;2.80;99.90
19206;DHT22;59358;52.134;5.596;2023-02-28T01:45:02;2.90;99.90
19206;DHT22;59358;52.134;5.596;2023-02-28T01:47:34;2.90;99.90
19206;DHT22;59358;52.134;5.596;2023-02-28T01:50:06;3.00;99.90
19206;DHT22;59358;52.134;5.596;2023-02-28T01:52:34;3.00;99.90
19206;DHT22;59358;52.134;5.596;2023-02-28T01:55:02;2.90;99.90
19206;DHT22;59358;52.134;5.596;2023-02-28T01:57:33;2.80;99.90
19206;DHT22;59358;52.134;5.596;2023-02-28T02:00:05;2.90;99.90
19206;DHT22;59358;52.134;5.596;2023-02-28T02:02:36;2.90;99.90
19206;DHT22;59358;52.134;5.596;2023-02-28T02:05:07;3.00;99.90
19206;DHT22;59358;52.134;5.596;2023-02-28T02:07:35;3.00;99.90
19206;DHT22;59358;52.134;5.596;2023-02-28T02:10:06;3.10;99.90
19206;DHT22;59358;52.134;5.596;2023-02-28T02:12:54;3.10;99.90
19206;DHT22;59358;52.134;5.596;2023-02-28T02:15:28;3.10;99.90
19206;DHT22;59358;52.134;5.596;2023-02-28T02:18:02;3.00;99.90
19206;DHT22;59358;52.134;5.596;2023-02-28T02:26:52;3.00;99.90
19206;DHT22;59358;52.134;5.596;2023-02-28T02:32:36;3.00;99.90
19206;DHT22;59358;52.134;5.596;2023-02-28T02:35:12;3.00;99.90
19206;DHT22;59358;52.134;5.596;2023-02-28T02:37:43;3.10;99.90
19206;DHT22;59358;52.134;5.596;2023-02-28T02:40:16;3.10;99.90
19206;DHT22;59358;52.134;5.596;2023-02-28T02:42:49;3.10;99.90
19206;DHT22;59358;52.134;5.596;2023-02-28T02:45:21;3.20;99.90
19206;DHT22;59358;52.134;5.596;2023-02-28T02:47:50;3.20;99.90
19206;DHT22;59358;52.134;5.596;2023-02-28T02:50:22;3.20;99.90
19206;DHT22;59358;52.134;5.596;2023-02-28T02:52:55;3.20;99.90
19206;DHT22;59358;52.134;5.596;2023-02-28T02:55:23;3.20;99.90
19206;DHT22;59358;52.134;5.596;2023-02-28T02:57:53;3.30;99.90
19206;DHT22;59358;52.134;5.596;2023-02-28T03:00:24;3.30;99.90
19206;DHT22;59358;52.134;5.596;2023-02-28T03:02:54;3.30;99.90
19206;DHT22;59358;52.134;5.596;2023-02-28T03:05:25;3.30;99.90
19206;DHT22;59358;52.134;5.596;2023-02-28T03:07:52;3.30;99.90
19206;DHT22;59358;52.134;5.596;2023-02-28T03:10:28;3.30;99.90
19206;DHT22;59358;52.134;5.596;2023-02-28T03:13:03;3.30;99.90
19206;DHT22;59358;52.134;5.596;2023-02-28T03:15:40;3.30;99.90
19206;DHT22;59358;52.134;5.596;2023-02-28T03:18:14;3.20;99.90
19206;DHT22;59358;52.134;5.596;2023-02-28T03:20:51;3.20;99.90
19206;DHT22;59358;52.134;5.596;2023-02-28T03:23:24;3.20;99.90
19206;DHT22;59358;52.134;5.596;2023-02-28T03:25:57;3.10;99.90
19206;DHT22;59358;52.134;5.596;2023-02-28T03:28:31;3.20;99.90
19206;DHT22;59358;52.134;5.596;2023-02-28T03:31:08;3.10;99.90
19206;DHT22;59358;52.134;5.596;2023-02-28T03:33:39;3.00;99.90
19206;DHT22;59358;52.134;5.596;2023-02-28T03:36:13;3.00;99.90
19206;DHT22;59358;52.134;5.596;2023-02-28T03:38:44;3.00;99.90
19206;DHT22;59358;52.134;5.596;2023-02-28T03:41:15;3.00;99.90
19206;DHT22;59358;52.134;5.596;2023-02-28T03:43:47;3.00;99.90
19206;DHT22;59358;52.134;5.596;2023-02-28T03:46:21;2.90;99.90
19206;DHT22;59358;52.134;5.596;2023-02-28T03:48:52;2.90;99.90
19206;DHT22;59358;52.134;5.596;2023-02-28T03:51:24;2.90;99.90
19206;DHT22;59358;52.134;5.596;2023-02-28T03:53:54;2.80;99.90
19206;DHT22;59358;52.134;5.596;2023-02-28T03:56:26;2.80;99.90
19206;DHT22;59358;52.134;5.596;2023-02-28T03:59:00;2.80;99.90
19206;DHT22;59358;52.134;5.596;2023-02-28T04:01:31;2.80;99.90
19206;DHT22;59358;52.134;5.596;2023-02-28T04:04:00;2.70;99.90
19206;DHT22;59358;52.134;5.596;2023-02-28T04:06:31;2.60;99.90
19206;DHT22;59358;52.134;5.596;2023-02-28T04:08:58;2.60;99.90
19206;DHT22;59358;52.134;5.596;2023-02-28T04:11:30;2.60;99.90
19206;DHT22;59358;52.134;5.596;2023-02-28T04:13:59;2.60;99.90
19206;DHT22;59358;52.134;5.596;2023-02-28T04:16:25;2.60;99.90
19206;DHT22;59358;52.134;5.596;2023-02-28T04:18:53;2.60;99.90
19206;DHT22;59358;52.134;5.596;2023-02-28T04:21:29;2.60;99.90
19206;DHT22;59358;52.134;5.596;2023-02-28T04:23:56;2.60;99.90
19206;DHT22;59358;52.134;5.596;2023-02-28T04:26:28;2.50;99.90
19206;DHT22;59358;52.134;5.596;2023-02-28T04:28:55;2.60;99.90
19206;DHT22;59358;52.134;5.596;2023-02-28T04:31:22;2.50;99.90
19206;DHT22;59358;52.134;5.596;2023-02-28T04:33:49;2.50;99.90
19206;DHT22;59358;52.134;5.596;2023-02-28T04:36:15;2.50;99.90
19206;DHT22;59358;52.134;5.596;2023-02-28T04:38:45;2.60;99.90
19206;DHT22;59358;52.134;5.596;2023-02-28T04:41:13;2.50;99.90
19206;DHT22;59358;52.134;5.596;2023-02-28T04:43:40;2.50;99.90
19206;DHT22;59358;52.134;5.596;2023-02-28T04:46:07;2.40;99.90
19206;DHT22;59358;52.134;5.596;2023-02-28T04:48:38;2.40;99.90
19206;DHT22;59358;52.134;5.596;2023-02-28T04:51:07;2.40;99.90
19206;DHT22;59358;52.134;5.596;2023-02-28T04:53:35;2.40;99.90
19206;DHT22;59358;52.134;5.596;2023-02-28T04:56:04;2.40;99.90
19206;DHT22;59358;52.134;5.596;2023-02-28T04:58:31;2.30;99.90
19206;DHT22;59358;52.134;5.596;2023-02-28T05:01:02;2.30;99.90
19206;DHT22;59358;52.134;5.596;2023-02-28T05:03:29;2.30;99.90
19206;DHT22;59358;52.134;5.596;2023-02-28T05:05:56;2.20;99.90
19206;DHT22;59358;52.134;5.596;2023-02-28T05:08:23;2.20;99.90
19206;DHT22;59358;52.134;5.596;2023-02-28T05:10:50;2.20;99.90
19206;DHT22;59358;52.134;5.596;2023-02-28T05:13:19;2.20;99.90
19206;DHT22;59358;52.134;5.596;2023-02-28T05:15:45;2.20;99.90
19206;DHT22;59358;52.134;5.596;2023-02-28T05:18:12;2.20;99.90
19206;DHT22;59358;52.134;5.596;2023-02-28T05:20:39;2.20;99.90
19206;DHT22;59358;52.134;5.596;2023-02-28T05:23:06;2.20;99.90
19206;DHT22;59358;52.134;5.596;2023-02-28T05:25:32;2.20;99.90
19206;DHT22;59358;52.134;5.596;2023-02-28T05:27:59;2.30;99.90
19206;DHT22;59358;52.134;5.596;2023-02-28T05:30:27;2.30;99.90
19206;DHT22;59358;52.134;5.596;2023-02-28T05:32:55;2.30;99.90
19206;DHT22;59358;52.134;5.596;2023-02-28T05:35:22;2.30;99.90
19206;DHT22;59358;52.134;5.596;2023-02-28T05:37:49;2.30;99.90
19206;DHT22;59358;52.134;5.596;2023-02-28T05:40:16;2.30;99.90
19206;DHT22;59358;52.134;5.596;2023-02-28T05:42:45;2.40;99.90
19206;DHT22;59358;52.134;5.596;2023-02-28T05:45:13;2.50;99.90
19206;DHT22;59358;52.134;5.596;2023-02-28T05:47:41;2.50;99.90
19206;DHT22;59358;52.134;5.596;2023-02-28T05:50:09;2.60;99.90
19206;DHT22;59358;52.134;5.596;2023-02-28T05:52:37;2.60;99.90
19206;DHT22;59358;52.134;5.596;2023-02-28T05:55:04;2.50;99.90
19206;DHT22;59358;52.134;5.596;2023-02-28T05:57:31;2.50;99.90
19206;DHT22;59358;52.134;5.596;2023-02-28T05:59:58;2.50;99.90
19206;DHT22;59358;52.134;5.596;2023-02-28T06:02:25;2.50;99.90
19206;DHT22;59358;52.134;5.596;2023-02-28T06:04:53;2.50;99.90
19206;DHT22;59358;52.134;5.596;2023-02-28T06:07:20;2.50;99.90
19206;DHT22;59358;52.134;5.596;2023-02-28T06:09:47;2.60;99.90
19206;DHT22;59358;52.134;5.596;2023-02-28T06:12:14;2.40;99.90
19206;DHT22;59358;52.134;5.596;2023-02-28T06:14:41;2.40;99.90
19206;DHT22;59358;52.134;5.596;2023-02-28T06:17:09;2.40;99.90
19206;DHT22;59358;52.134;5.596;2023-02-28T06:19:37;2.40;99.90
19206;DHT22;59358;52.134;5.596;2023-02-28T06:22:05;2.40;99.90
19206;DHT22;59358;52.134;5.596;2023-02-28T06:24:32;2.40;99.90
19206;DHT22;59358;52.134;5.596;2023-02-28T06:26:59;2.30;99.90
19206;DHT22;59358;52.134;5.596;2023-02-28T06:29:30;2.30;99.90
19206;DHT22;59358;52.134;5.596;2023-02-28T06:31:58;2.30;99.90
19206;DHT22;59358;52.134;5.596;2023-02-28T06:34:24;2.30;99.90
19206;DHT22;59358;52.134;5.596;2023-02-28T06:36:52;2.30;99.90
19206;DHT22;59358;52.134;5.596;2023-02-28T06:39:20;2.30;99.90
19206;DHT22;59358;52.134;5.596;2023-02-28T06:41:47;2.40;99.90
19206;DHT22;59358;52.134;5.596;2023-02-28T06:44:15;2.40;99.90
19206;DHT22;59358;52.134;5.596;2023-02-28T06:46:43;2.40;99.90
19206;DHT22;59358;52.134;5.596;2023-02-28T06:49:11;2.40;99.90
19206;DHT22;59358;52.134;5.596;2023-02-28T06:51:39;2.50;99.90
19206;DHT22;59358;52.134;5.596;2023-02-28T06:54:07;2.40;99.90
19206;DHT22;59358;52.134;5.596;2023-02-28T06:56:36;2.40;99.90
19206;DHT22;59358;52.134;5.596;2023-02-28T06:59:03;2.50;99.90
19206;DHT22;59358;52.134;5.596;2023-02-28T07:01:31;2.60;99.90
19206;DHT22;59358;52.134;5.596;2023-02-28T07:03:58;2.60;99.90
19206;DHT22;59358;52.134;5.596;2023-02-28T07:06:25;2.60;99.90
19206;DHT22;59358;52.134;5.596;2023-02-28T07:08:53;2.70;99.90
19206;DHT22;59358;52.134;5.596;2023-02-28T07:11:20;2.80;99.90
19206;DHT22;59358;52.134;5.596;2023-02-28T07:13:49;2.70;99.90
19206;DHT22;59358;52.134;5.596;2023-02-28T07:16:16;2.70;99.90
19206;DHT22;59358;52.134;5.596;2023-02-28T07:18:43;2.80;99.90
19206;DHT22;59358;52.134;5.596;2023-02-28T07:21:10;2.80;99.90
19206;DHT22;59358;52.134;5.596;2023-02-28T07:23:38;2.80;99.90
19206;DHT22;59358;52.134;5.596;2023-02-28T07:26:06;2.70;99.90
19206;DHT22;59358;52.134;5.596;2023-02-28T07:28:33;2.70;99.90
19206;DHT22;59358;52.134;5.596;2023-02-28T07:31:05;2.70;99.90
19206;DHT22;59358;52.134;5.596;2023-02-28T07:33:33;2.70;99.90
19206;DHT22;59358;52.134;5.596;2023-02-28T07:36:01;2.70;99.90
19206;DHT22;59358;52.134;5.596;2023-02-28T07:38:28;2.70;99.90
19206;DHT22;59358;52.134;5.596;2023-02-28T07:40:55;2.80;99.90
19206;DHT22;59358;52.134;5.596;2023-02-28T07:43:21;2.70;99.90
19206;DHT22;59358;52.134;5.596;2023-02-28T07:45:49;2.80;99.90
19206;DHT22;59358;52.134;5.596;2023-02-28T07:48:17;3.00;99.90
19206;DHT22;59358;52.134;5.596;2023-02-28T07:50:44;2.90;99.90
19206;DHT22;59358;52.134;5.596;2023-02-28T07:53:13;2.90;99.90
19206;DHT22;59358;52.134;5.596;2023-02-28T07:55:40;3.00;99.90
19206;DHT22;59358;52.134;5.596;2023-02-28T07:58:07;3.10;99.90
19206;DHT22;59358;52.134;5.596;2023-02-28T08:00:34;3.30;99.90
19206;DHT22;59358;52.134;5.596;2023-02-28T08:03:00;3.30;99.90
19206;DHT22;59358;52.134;5.596;2023-02-28T08:05:29;3.40;99.90
19206;DHT22;59358;52.134;5.596;2023-02-28T08:07:56;3.60;99.90
19206;DHT22;59358;52.134;5.596;2023-02-28T08:10:23;3.70;99.90
19206;DHT22;59358;52.134;5.596;2023-02-28T08:12:50;3.80;99.90
19206;DHT22;59358;52.134;5.596;2023-02-28T08:15:17;3.80;99.90
19206;DHT22;59358;52.134;5.596;2023-02-28T08:17:44;3.90;99.90
19206;DHT22;59358;52.134;5.596;2023-02-28T08:20:11;3.70;99.90
19206;DHT22;59358;52.134;5.596;2023-02-28T08:22:40;3.80;99.90
19206;DHT22;59358;52.134;5.596;2023-02-28T08:25:08;3.80;99.90
19206;DHT22;59358;52.134;5.596;2023-02-28T08:27:35;3.90;99.90
19206;DHT22;59358;52.134;5.596;2023-02-28T08:30:03;3.90;99.90
19206;DHT22;59358;52.134;5.596;2023-02-28T08:32:31;4.00;99.90
19206;DHT22;59358;52.134;5.596;2023-02-28T08:34:58;4.10;99.90
19206;DHT22;59358;52.134;5.596;2023-02-28T08:37:25;4.10;99.90
19206;DHT22;59358;52.134;5.596;2023-02-28T08:39:54;4.30;99.90
19206;DHT22;59358;52.134;5.596;2023-02-28T08:42:20;4.40;99.90
19206;DHT22;59358;52.134;5.596;2023-02-28T08:44:47;4.50;99.90
19206;DHT22;59358;52.134;5.596;2023-02-28T08:47:14;4.70;99.90
19206;DHT22;59358;52.134;5.596;2023-02-28T08:49:41;4.80;99.90
19206;DHT22;59358;52.134;5.596;2023-02-28T08:52:08;5.00;99.90
19206;DHT22;59358;52.134;5.596;2023-02-28T08:54:35;5.30;99.90
19206;DHT22;59358;52.134;5.596;2023-02-28T08:57:03;5.50;99.90
19206;DHT22;59358;52.134;5.596;2023-02-28T08:59:30;5.80;99.90
19206;DHT22;59358;52.134;5.596;2023-02-28T09:01:58;6.00;99.90
19206;DHT22;59358;52.134;5.596;2023-02-28T09:04:25;5.80;99.90
19206;DHT22;59358;52.134;5.596;2023-02-28T09:06:51;5.70;99.90
19206;DHT22;59358;52.134;5.596;2023-02-28T09:09:19;5.50;99.90
19206;DHT22;59358;52.134;5.596;2023-02-28T09:11:45;5.60;99.90
19206;DHT22;59358;52.134;5.596;2023-02-28T09:14:14;5.40;99.90
19206;DHT22;59358;52.134;5.596;2023-02-28T09:16:42;5.10;99.90
19206;DHT22;59358;52.134;5.596;2023-02-28T09:19:10;5.10;99.90
19206;DHT22;59358;52.134;5.596;2023-02-28T09:21:37;5.30;99.90
19206;DHT22;59358;52.134;5.596;2023-02-28T09:24:05;5.30;99.10
19206;DHT22;59358;52.134;5.596;2023-02-28T09:26:32;5.40;99.00
19206;DHT22;59358;52.134;5.596;2023-02-28T09:28:59;5.30;99.50
19206;DHT22;59358;52.134;5.596;2023-02-28T09:31:29;5.20;99.20
19206;DHT22;59358;52.134;5.596;2023-02-28T09:33:57;5.30;99.40
19206;DHT22;59358;52.134;5.596;2023-02-28T09:36:26;5.60;99.90
19206;DHT22;59358;52.134;5.596;2023-02-28T09:38:53;5.70;99.80
19206;DHT22;59358;52.134;5.596;2023-02-28T09:41:22;6.00;99.20
19206;DHT22;59358;52.134;5.596;2023-02-28T09:43:51;6.20;98.50
19206;DHT22;59358;52.134;5.596;2023-02-28T09:46:31;6.40;99.30
19206;DHT22;59358;52.134;5.596;2023-02-28T09:49:00;6.60;99.20
19206;DHT22;59358;52.134;5.596;2023-02-28T09:51:44;6.90;98.60
19206;DHT22;59358;52.134;5.596;2023-02-28T09:54:15;6.80;96.40
19206;DHT22;59358;52.134;5.596;2023-02-28T09:56:45;6.80;97.80
19206;DHT22;59358;52.134;5.596;2023-02-28T09:59:21;6.90;96.30
19206;DHT22;59358;52.134;5.596;2023-02-28T10:02:00;6.80;96.60
19206;DHT22;59358;52.134;5.596;2023-02-28T10:04:40;6.90;96.60
19206;DHT22;59358;52.134;5.596;2023-02-28T10:07:17;6.90;96.40
19206;DHT22;59358;52.134;5.596;2023-02-28T10:09:50;7.10;96.90
19206;DHT22;59358;52.134;5.596;2023-02-28T10:12:20;7.30;96.00
19206;DHT22;59358;52.134;5.596;2023-02-28T10:14:49;7.30;95.60
19206;DHT22;59358;52.134;5.596;2023-02-28T10:17:21;7.30;95.80
19206;DHT22;59358;52.134;5.596;2023-02-28T10:19:56;7.00;94.40
19206;DHT22;59358;52.134;5.596;2023-02-28T10:22:30;7.00;95.10
19206;DHT22;59358;52.134;5.596;2023-02-28T10:25:00;7.00;95.50
19206;DHT22;59358;52.134;5.596;2023-02-28T10:27:30;7.10;96.00
19206;DHT22;59358;52.134;5.596;2023-02-28T10:29:59;7.20;96.20
19206;DHT22;59358;52.134;5.596;2023-02-28T10:32:29;7.10;94.50
19206;DHT22;59358;52.134;5.596;2023-02-28T10:34:59;6.90;95.10
19206;DHT22;59358;52.134;5.596;2023-02-28T10:37:26;6.80;95.10
19206;DHT22;59358;52.134;5.596;2023-02-28T10:39:53;6.90;96.00
19206;DHT22;59358;52.134;5.596;2023-02-28T10:42:24;6.80;95.60
19206;DHT22;59358;52.134;5.596;2023-02-28T10:45:09;6.80;95.20
19206;DHT22;59358;52.134;5.596;2023-02-28T10:47:49;6.60;94.10
19206;DHT22;59358;52.134;5.596;2023-02-28T10:50:38;6.60;95.40
19206;DHT22;59358;52.134;5.596;2023-02-28T10:53:22;6.90;96.00
19206;DHT22;59358;52.134;5.596;2023-02-28T10:55:57;7.00;93.50
19206;DHT22;59358;52.134;5.596;2023-02-28T10:58:25;7.00;94.50
19206;DHT22;59358;52.134;5.596;2023-02-28T11:00:54;7.10;95.20
19206;DHT22;59358;52.134;5.596;2023-02-28T11:03:30;7.20;94.40
19206;DHT22;59358;52.134;5.596;2023-02-28T11:06:04;7.40;94.50
19206;DHT22;59358;52.134;5.596;2023-02-28T11:08:31;7.60;94.30
19206;DHT22;59358;52.134;5.596;2023-02-28T11:11:04;7.80;95.30
19206;DHT22;59358;52.134;5.596;2023-02-28T11:13:33;7.80;94.40
19206;DHT22;59358;52.134;5.596;2023-02-28T11:16:03;7.50;94.00
19206;DHT22;59358;52.134;5.596;2023-02-28T11:18:37;7.10;94.30
19206;DHT22;59358;52.134;5.596;2023-02-28T11:21:07;7.10;95.80
19206;DHT22;59358;52.134;5.596;2023-02-28T11:23:40;7.20;95.10
19206;DHT22;59358;52.134;5.596;2023-02-28T11:26:08;7.40;95.00
19206;DHT22;59358;52.134;5.596;2023-02-28T11:28:38;7.40;94.50
19206;DHT22;59358;52.134;5.596;2023-02-28T11:31:15;7.50;95.00
19206;DHT22;59358;52.134;5.596;2023-02-28T11:33:49;7.60;94.60
19206;DHT22;59358;52.134;5.596;2023-02-28T11:36:19;7.60;94.00
19206;DHT22;59358;52.134;5.596;2023-02-28T11:38:47;7.40;93.30
19206;DHT22;59358;52.134;5.596;2023-02-28T11:41:31;7.50;94.30
19206;DHT22;59358;52.134;5.596;2023-02-28T11:44:23;7.40;94.50
19206;DHT22;59358;52.134;5.596;2023-02-28T11:46:57;7.40;94.90
19206;DHT22;59358;52.134;5.596;2023-02-28T11:49:34;7.50;95.70
19206;DHT22;59358;52.134;5.596;2023-02-28T11:52:10;7.50;94.80
19206;DHT22;59358;52.134;5.596;2023-02-28T11:54:59;7.50;95.20
19206;DHT22;59358;52.134;5.596;2023-02-28T11:57:35;7.50;93.80
19206;DHT22;59358;52.134;5.596;2023-02-28T12:00:13;7.50;93.90
19206;DHT22;59358;52.134;5.596;2023-02-28T12:02:52;7.30;95.20
19206;DHT22;59358;52.134;5.596;2023-02-28T12:05:29;7.50;95.00
19206;DHT22;59358;52.134;5.596;2023-02-28T12:08:06;7.80;94.70
19206;DHT22;59358;52.134;5.596;2023-02-28T12:10:44;7.90;94.50
19206;DHT22;59358;52.134;5.596;2023-02-28T12:13:24;7.70;94.10
19206;DHT22;59358;52.134;5.596;2023-02-28T12:16:12;7.80;94.20
19206;DHT22;59358;52.134;5.596;2023-02-28T12:19:05;7.80;94.20
19206;DHT22;59358;52.134;5.596;2023-02-28T12:21:45;7.70;93.70
19206;DHT22;59358;52.134;5.596;2023-02-28T12:24:36;7.90;94.60
19206;DHT22;59358;52.134;5.596;2023-02-28T12:27:09;7.90;93.70
19206;DHT22;59358;52.134;5.596;2023-02-28T12:29:42;8.00;94.80
19206;DHT22;59358;52.134;5.596;2023-02-28T12:32:12;8.10;92.90
19206;DHT22;59358;52.134;5.596;2023-02-28T12:34:44;8.10;94.40
19206;DHT22;59358;52.134;5.596;2023-02-28T12:37:21;8.30;93.60
19206;DHT22;59358;52.134;5.596;2023-02-28T12:39:54;8.00;92.40
19206;DHT22;59358;52.134;5.596;2023-02-28T12:42:25;7.80;93.60
19206;DHT22;59358;52.134;5.596;2023-02-28T12:44:56;7.70;94.50
19206;DHT22;59358;52.134;5.596;2023-02-28T12:47:25;8.00;95.10
19206;DHT22;59358;52.134;5.596;2023-02-28T12:49:55;8.10;94.50
19206;DHT22;59358;52.134;5.596;2023-02-28T12:52:29;8.10;94.50
19206;DHT22;59358;52.134;5.596;2023-02-28T12:55:03;8.10;93.80
19206;DHT22;59358;52.134;5.596;2023-02-28T12:57:39;8.00;93.50
19206;DHT22;59358;52.134;5.596;2023-02-28T13:00:13;8.00;93.10
19206;DHT22;59358;52.134;5.596;2023-02-28T13:02:58;8.10;92.30
19206;DHT22;59358;52.134;5.596;2023-02-28T13:05:50;8.00;91.90
19206;DHT22;59358;52.134;5.596;2023-02-28T13:08:44;7.90;93.10
19206;DHT22;59358;52.134;5.596;2023-02-28T13:11:29;8.00;94.40
19206;DHT22;59358;52.134;5.596;2023-02-28T13:14:01;7.70;92.50
19206;DHT22;59358;52.134;5.596;2023-02-28T13:17:01;8.00;93.80
19206;DHT22;59358;52.134;5.596;2023-02-28T13:19:30;7.80;92.60
19206;DHT22;59358;52.134;5.596;2023-02-28T13:21:58;8.00;92.50
19206;DHT22;59358;52.134;5.596;2023-02-28T13:24:54;8.00;92.10
19206;DHT22;59358;52.134;5.596;2023-02-28T13:27:31;8.00;92.40
19206;DHT22;59358;52.134;5.596;2023-02-28T13:29:59;8.00;91.70
19206;DHT22;59358;52.134;5.596;2023-02-28T13:32:35;7.80;92.20
19206;DHT22;59358;52.134;5.596;2023-02-28T13:35:35;7.90;92.40
19206;DHT22;59358;52.134;5.596;2023-02-28T13:38:24;8.10;92.10
19206;DHT22;59358;52.134;5.596;2023-02-28T13:40:52;8.00;91.70
19206;DHT22;59358;52.134;5.596;2023-02-28T13:43:19;7.70;91.80
19206;DHT22;59358;52.134;5.596;2023-02-28T13:46:11;7.70;91.80
19206;DHT22;59358;52.134;5.596;2023-02-28T13:48:38;7.70;91.80
19206;DHT22;59358;52.134;5.596;2023-02-28T13:51:28;8.00;92.80
19206;DHT22;59358;52.134;5.596;2023-02-28T13:54:04;8.20;93.50
19206;DHT22;59358;52.134;5.596;2023-02-28T13:56:42;7.80;92.00
19206;DHT22;59358;52.134;5.596;2023-02-28T13:59:22;7.80;92.00
19206;DHT22;59358;52.134;5.596;2023-02-28T14:02:00;8.00;93.30
19206;DHT22;59358;52.134;5.596;2023-02-28T14:04:54;8.20;92.50
19206;DHT22;59358;52.134;5.596;2023-02-28T14:07:27;8.00;92.10
19206;DHT22;59358;52.134;5.596;2023-02-28T14:09:59;8.20;93.10
19206;DHT22;59358;52.134;5.596;2023-02-28T14:13:10;8.30;93.40
19206;DHT22;59358;52.134;5.596;2023-02-28T14:15:46;8.30;91.10
19206;DHT22;59358;52.134;5.596;2023-02-28T14:18:30;8.00;92.00
19206;DHT22;59358;52.134;5.596;2023-02-28T14:21:03;7.80;91.10
19206;DHT22;59358;52.134;5.596;2023-02-28T14:27:11;8.00;92.50
19206;DHT22;59358;52.134;5.596;2023-02-28T14:30:15;8.20;93.90
19206;DHT22;59358;52.134;5.596;2023-02-28T14:32:51;8.20;92.30
19206;DHT22;59358;52.134;5.596;2023-02-28T14:38:18;7.80;92.00
19206;DHT22;59358;52.134;5.596;2023-02-28T14:40:47;7.90;92.30
19206;DHT22;59358;52.134;5.596;2023-02-28T14:43:22;7.90;92.00
19206;DHT22;59358;52.134;5.596;2023-02-28T14:45:56;8.00;92.60
19206;DHT22;59358;52.134;5.596;2023-02-28T14:48:24;8.30;92.90
19206;DHT22;59358;52.134;5.596;2023-02-28T14:50:54;8.40;93.40
19206;DHT22;59358;52.134;5.596;2023-02-28T14:53:23;8.10;92.50
19206;DHT22;59358;52.134;5.596;2023-02-28T14:55:51;8.10;92.50
19206;DHT22;59358;52.134;5.596;2023-02-28T14:58:23;8.30;92.60
19206;DHT22;59358;52.134;5.596;2023-02-28T15:00:53;8.20;91.80
19206;DHT22;59358;52.134;5.596;2023-02-28T15:03:23;8.30;91.80
19206;DHT22;59358;52.134;5.596;2023-02-28T15:05:53;8.20;92.10
19206;DHT22;59358;52.134;5.596;2023-02-28T15:08:21;8.20;91.50
19206;DHT22;59358;52.134;5.596;2023-02-28T15:10:53;8.40;92.00
19206;DHT22;59358;52.134;5.596;2023-02-28T15:13:20;8.50;90.70
19206;DHT22;59358;52.134;5.596;2023-02-28T15:15:51;8.30;91.30
19206;DHT22;59358;52.134;5.596;2023-02-28T15:18:28;8.10;91.80
19206;DHT22;59358;52.134;5.596;2023-02-28T15:20:58;8.30;91.30
19206;DHT22;59358;52.134;5.596;2023-02-28T15:23:25;8.50;91.10
19206;DHT22;59358;52.134;5.596;2023-02-28T15:25:53;8.20;90.90
19206;DHT22;59358;52.134;5.596;2023-02-28T15:28:22;8.20;91.90
19206;DHT22;59358;52.134;5.596;2023-02-28T15:30:54;8.10;90.90
19206;DHT22;59358;52.134;5.596;2023-02-28T15:33:23;8.00;92.00
19206;DHT22;59358;52.134;5.596;2023-02-28T15:35:51;8.20;90.90
19206;DHT22;59358;52.134;5.596;2023-02-28T15:38:22;8.40;90.80
19206;DHT22;59358;52.134;5.596;2023-02-28T15:40:51;8.50;90.80
19206;DHT22;59358;52.134;5.596;2023-02-28T15:43:25;8.40;90.10
19206;DHT22;59358;52.134;5.596;2023-02-28T15:45:58;8.60;90.80
19206;DHT22;59358;52.134;5.596;2023-02-28T15:48:28;8.70;89.60
19206;DHT22;59358;52.134;5.596;2023-02-28T15:50:57;8.80;89.50
19206;DHT22;59358;52.134;5.596;2023-02-28T15:53:32;9.00;89.50
19206;DHT22;59358;52.134;5.596;2023-02-28T15:56:01;9.40;89.20
19206;DHT22;59358;52.134;5.596;2023-02-28T15:58:29;9.30;88.30
19206;DHT22;59358;52.134;5.596;2023-02-28T16:01:06;9.60;87.50
19206;DHT22;59358;52.134;5.596;2023-02-28T16:03:39;9.40;86.80
19206;DHT22;59358;52.134;5.596;2023-02-28T16:06:32;9.60;86.60
19206;DHT22;59358;52.134;5.596;2023-02-28T16:08:59;9.90;85.70
19206;DHT22;59358;52.134;5.596;2023-02-28T16:11:26;10.00;86.20
19206;DHT22;59358;52.134;5.596;2023-02-28T16:13:54;10.50;88.50
19206;DHT22;59358;52.134;5.596;2023-02-28T16:16:23;10.80;84.00
19206;DHT22;59358;52.134;5.596;2023-02-28T16:18:53;11.00;85.40
19206;DHT22;59358;52.134;5.596;2023-02-28T16:21:20;10.70;84.40
19206;DHT22;59358;52.134;5.596;2023-02-28T16:23:47;10.40;85.00
19206;DHT22;59358;52.134;5.596;2023-02-28T16:26:20;10.40;86.10